createdAt,value
2019-03-04T00:03:00.058Z,9.10
2019-03-04T00:07:54.655Z,8.80
2019-03-04T00:12:49.266Z,8.70
2019-03-04T00:17:44.782Z,8.50
2019-03-04T00:22:39.437Z,8.40
2019-03-04T00:27:34.035Z,8.30
2019-03-04T00:32:28.600Z,8.20
2019-03-04T00:37:23.873Z,8.10
2019-03-04T00:42:18.439Z,8.00
2019-03-04T00:47:13.032Z,7.80
2019-03-04T00:52:07.616Z,7.70
2019-03-04T00:57:02.207Z,7.60
2019-03-04T01:01:56.793Z,7.70
2019-03-04T01:06:51.475Z,7.60
2019-03-04T01:11:46.060Z,7.50
2019-03-04T01:16:40.674Z,7.50
2019-03-04T01:21:35.269Z,7.40
2019-03-04T01:26:29.843Z,7.40
2019-03-04T01:31:24.424Z,7.30
2019-03-04T01:36:19.006Z,7.40
2019-03-04T01:41:13.588Z,7.30
2019-03-04T01:46:08.173Z,7.20
2019-03-04T01:51:02.743Z,7.10
2019-03-04T01:55:57.322Z,7.10
2019-03-04T02:00:51.930Z,7.10
2019-03-04T02:05:46.580Z,7.30
2019-03-04T02:10:41.188Z,7.80
2019-03-04T02:15:35.829Z,8.30
2019-03-04T02:20:30.496Z,8.80
2019-03-04T02:25:47.271Z,8.90
2019-03-04T02:30:41.912Z,9.00
2019-03-04T02:35:36.629Z,9.00
2019-03-04T02:40:31.197Z,8.80
2019-03-04T02:45:25.781Z,8.80
2019-03-04T02:50:20.351Z,8.70
2019-03-04T02:55:17.641Z,8.20
2019-03-04T03:00:19.111Z,7.80
2019-03-04T03:05:14.424Z,7.70
2019-03-04T03:10:16.827Z,7.40
2019-03-04T03:15:17.798Z,7.30
2019-03-04T03:20:14.172Z,7.10
2019-03-04T03:25:11.841Z,7.00
2019-03-04T03:30:13.614Z,6.90
2019-03-04T03:35:10.486Z,7.00
2019-03-04T03:40:09.980Z,7.10
2019-03-04T03:45:07.856Z,7.10
2019-03-04T03:50:02.513Z,7.00
2019-03-04T03:54:57.084Z,7.00
2019-03-04T03:59:51.665Z,6.80
2019-03-04T04:04:46.331Z,6.90
2019-03-04T04:09:40.904Z,6.90
2019-03-04T04:14:35.487Z,6.70
2019-03-04T04:19:30.076Z,6.50
2019-03-04T04:24:24.659Z,6.40
2019-03-04T04:29:19.298Z,6.50
2019-03-04T04:34:14.131Z,6.40
2019-03-04T04:39:08.783Z,6.40
2019-03-04T04:44:03.449Z,6.30
2019-03-04T04:48:58.032Z,6.20
2019-03-04T04:53:52.605Z,6.10
2019-03-04T04:58:47.188Z,6.00
2019-03-04T05:03:41.775Z,5.90
2019-03-04T05:08:36.338Z,5.90
2019-03-04T05:13:30.937Z,5.90
2019-03-04T05:18:25.534Z,5.90
2019-03-04T05:23:20.099Z,5.70
2019-03-04T05:28:14.682Z,5.80
2019-03-04T05:33:09.251Z,5.80
2019-03-04T05:38:03.834Z,5.80
2019-03-04T05:42:58.404Z,5.80
2019-03-04T05:47:53.023Z,5.80
2019-03-04T05:52:47.602Z,5.90
2019-03-04T05:57:42.188Z,6.00
2019-03-04T06:02:36.756Z,6.10
2019-03-04T06:07:32.994Z,6.20
2019-03-04T06:12:27.595Z,6.20
2019-03-04T06:17:22.178Z,6.20
2019-03-04T06:22:16.740Z,6.30
2019-03-04T06:27:11.348Z,6.50
2019-03-04T06:32:05.923Z,6.60
2019-03-04T06:37:00.507Z,6.80
2019-03-04T06:41:55.071Z,7.30
2019-03-04T06:46:50.352Z,8.00
2019-03-04T06:51:45.174Z,8.40
2019-03-04T06:56:59.092Z,8.50
2019-03-04T07:02:16.027Z,8.50
2019-03-04T07:07:10.602Z,8.70
2019-03-04T07:12:05.314Z,9.20
2019-03-04T07:16:59.896Z,10.00
2019-03-04T07:21:54.618Z,11.10
2019-03-04T07:26:49.277Z,11.40
2019-03-04T07:31:44.925Z,11.50
2019-03-04T07:36:39.583Z,11.90
2019-03-04T07:41:34.324Z,12.90
2019-03-04T07:46:29.367Z,13.70
2019-03-04T07:51:24.237Z,14.10
2019-03-04T07:56:18.958Z,14.70
2019-03-04T08:01:14.097Z,14.80
2019-03-04T08:06:10.548Z,14.20
2019-03-04T08:11:37.147Z,13.80
2019-03-04T08:16:32.372Z,14.30
2019-03-04T08:21:28.190Z,13.80
2019-03-04T08:26:22.786Z,13.20
2019-03-04T08:31:17.381Z,13.60
2019-03-04T08:36:12.038Z,13.90
2019-03-04T08:41:06.841Z,14.40
2019-03-04T08:46:01.529Z,14.50
2019-03-04T08:50:56.135Z,14.20
2019-03-04T08:55:50.800Z,14.00
2019-03-04T09:00:45.439Z,13.90
2019-03-04T09:05:42.770Z,13.50
2019-03-04T09:10:38.784Z,13.30
2019-03-04T09:15:33.517Z,13.20
2019-03-04T09:20:28.282Z,13.30
2019-03-04T09:25:36.034Z,13.30
2019-03-04T09:30:30.955Z,13.20
2019-03-04T09:35:25.661Z,13.00
2019-03-04T09:40:23.098Z,12.70
2019-03-04T09:45:18.496Z,12.30
2019-03-04T09:50:25.763Z,11.90
2019-03-04T09:55:21.924Z,11.70
2019-03-04T10:00:42.904Z,11.40
2019-03-04T10:06:14.502Z,11.30
2019-03-04T10:11:34.714Z,10.50
2019-03-04T10:16:33.964Z,10.50
2019-03-04T10:21:44.536Z,10.10
2019-03-04T10:27:25.038Z,9.60
2019-03-04T10:32:36.135Z,9.00
2019-03-04T10:37:41.293Z,8.80
2019-03-04T10:43:16.853Z,8.70
2019-03-04T10:48:11.437Z,8.70
2019-03-04T10:53:06.587Z,8.60
2019-03-04T10:58:01.211Z,8.30
2019-03-04T11:02:55.872Z,8.30
2019-03-04T11:07:50.532Z,8.40
2019-03-04T11:12:45.173Z,8.50
2019-03-04T11:17:39.768Z,8.60
2019-03-04T11:22:34.347Z,8.60
2019-03-04T11:27:29.068Z,8.60
2019-03-04T11:32:23.643Z,8.60
2019-03-04T11:37:18.251Z,8.50
2019-03-04T11:42:12.904Z,8.50
2019-03-04T11:47:07.482Z,8.40
2019-03-04T11:52:02.094Z,8.40
2019-03-04T11:56:56.709Z,8.40
2019-03-04T12:01:51.422Z,8.50
2019-03-04T12:06:46.154Z,8.50
2019-03-04T12:11:40.730Z,8.60
2019-03-04T12:16:35.866Z,8.70
2019-03-04T12:21:30.688Z,8.70
2019-03-04T12:26:25.269Z,8.80
2019-03-04T12:31:20.102Z,8.80
2019-03-04T12:36:14.664Z,8.90
2019-03-04T12:41:09.448Z,9.00
2019-03-04T12:46:04.028Z,9.10
2019-03-04T12:50:59.491Z,9.10
2019-03-04T12:55:54.080Z,9.10
2019-03-04T13:00:48.887Z,9.20
2019-03-04T13:05:53.782Z,9.20
2019-03-04T13:11:05.906Z,9.20
2019-03-04T13:16:14.918Z,9.20
2019-03-04T13:21:21.820Z,9.20
2019-03-04T13:26:16.413Z,9.20
2019-03-04T13:31:11.438Z,9.20
2019-03-04T13:36:08.183Z,9.30
2019-03-04T13:41:14.438Z,9.40
2019-03-04T13:46:20.784Z,9.70
2019-03-04T13:51:26.967Z,9.80
2019-03-04T13:56:21.547Z,9.90
2019-03-04T14:01:16.363Z,10.00
2019-03-04T14:06:10.962Z,10.10
2019-03-04T14:11:06.278Z,10.20
2019-03-04T14:16:00.952Z,10.20
2019-03-04T14:20:55.540Z,10.40
2019-03-04T14:25:53.710Z,10.70
2019-03-04T14:30:48.303Z,10.80
2019-03-04T14:35:42.974Z,11.10
2019-03-04T14:40:37.625Z,11.30
2019-03-04T14:45:32.285Z,11.40
2019-03-04T14:50:28.528Z,11.60
2019-03-04T14:55:30.100Z,11.70
2019-03-04T15:00:31.935Z,11.70
2019-03-04T15:05:27.024Z,11.50
2019-03-04T15:10:21.912Z,11.40
2019-03-04T15:15:26.387Z,11.20
2019-03-04T15:20:24.487Z,11.20
2019-03-04T15:25:30.589Z,11.40
2019-03-04T15:30:25.441Z,11.40
2019-03-04T15:35:31.903Z,11.20
2019-03-04T15:40:29.004Z,11.10
2019-03-04T15:45:24.056Z,11.00
2019-03-04T15:50:18.926Z,10.90
2019-03-04T15:55:14.111Z,10.70
2019-03-04T16:00:15.815Z,10.80
2019-03-04T16:05:15.030Z,10.70
2019-03-04T16:10:24.250Z,10.60
2019-03-04T16:15:21.633Z,10.60
2019-03-04T16:20:19.440Z,10.50
2019-03-04T16:25:24.677Z,10.30
2019-03-04T16:30:24.584Z,9.90
2019-03-04T16:35:20.146Z,9.70
2019-03-04T16:40:23.590Z,9.60
2019-03-04T16:45:20.788Z,9.50
2019-03-04T16:50:24.531Z,9.40
2019-03-04T16:55:19.183Z,9.30
2019-03-04T17:00:21.898Z,9.20
2019-03-04T17:05:19.070Z,9.10
2019-03-04T17:10:17.511Z,8.90
2019-03-04T17:15:16.950Z,8.70
2019-03-04T17:20:14.971Z,8.70
2019-03-04T17:25:19.360Z,8.70
2019-03-04T17:30:20.069Z,8.80
2019-03-04T17:35:18.756Z,8.70
2019-03-04T17:40:17.524Z,8.70
2019-03-04T17:45:16.360Z,8.70
2019-03-04T17:50:33.135Z,8.80
2019-03-04T17:55:27.769Z,8.80
2019-03-04T18:00:22.561Z,8.90
2019-03-04T18:05:18.157Z,8.90
2019-03-04T18:10:18.736Z,8.90
2019-03-04T18:15:20.266Z,8.90
2019-03-04T18:20:16.341Z,8.90
2019-03-04T18:25:21.057Z,8.80
2019-03-04T18:30:39.863Z,8.90
2019-03-04T18:36:01.184Z,8.50
2019-03-04T18:41:26.054Z,8.10
2019-03-04T18:46:48.886Z,7.90
2019-03-04T18:51:43.522Z,7.60
2019-03-04T18:56:38.164Z,7.50
2019-03-04T19:01:32.873Z,7.50
2019-03-04T19:06:27.560Z,7.50
2019-03-04T19:11:23.751Z,7.60
2019-03-04T19:16:18.677Z,7.70
2019-03-04T19:21:13.243Z,7.90
2019-03-04T19:26:07.967Z,8.00
2019-03-04T19:31:02.697Z,8.00
2019-03-04T19:35:57.286Z,8.00
2019-03-04T19:40:51.880Z,8.00
2019-03-04T19:45:46.713Z,8.10
2019-03-04T19:50:41.355Z,8.10
2019-03-04T19:55:36.809Z,8.10
2019-03-04T20:00:33.163Z,8.10
2019-03-04T20:05:30.758Z,8.00
2019-03-04T20:10:25.510Z,7.90
2019-03-04T20:15:26.385Z,7.90
2019-03-04T20:20:21.269Z,7.90
2019-03-04T20:25:17.866Z,7.90
2019-03-04T20:30:15.927Z,7.90
2019-03-04T20:35:17.372Z,7.90
2019-03-04T20:40:12.918Z,8.00
2019-03-04T20:45:15.650Z,8.00
2019-03-04T20:50:17.772Z,8.00
2019-03-04T20:55:14.073Z,8.10
2019-03-04T21:00:26.637Z,8.20
2019-03-04T21:05:21.388Z,8.40
2019-03-04T21:10:17.284Z,8.00
2019-03-04T21:15:14.539Z,6.90
2019-03-04T21:20:19.823Z,6.30
2019-03-04T21:25:48.801Z,5.90
2019-03-04T21:30:59.549Z,5.60
2019-03-04T21:36:03.824Z,5.40
2019-03-04T21:41:20.903Z,5.40
2019-03-04T21:46:51.509Z,5.20
2019-03-04T21:51:59.687Z,5.30
2019-03-04T21:57:23.243Z,5.40
2019-03-04T22:02:46.308Z,5.60
2019-03-04T22:07:41.417Z,5.70
2019-03-04T22:12:36.098Z,5.70
2019-03-04T22:17:30.654Z,5.80
2019-03-04T22:22:25.248Z,5.80
2019-03-04T22:27:19.885Z,5.70
2019-03-04T22:32:14.493Z,5.60
2019-03-04T22:37:09.128Z,5.60
2019-03-04T22:42:03.807Z,5.50
2019-03-04T22:46:58.403Z,5.40
2019-03-04T22:51:53.007Z,5.30
2019-03-04T22:56:47.599Z,5.30
2019-03-04T23:01:47.311Z,5.30
2019-03-04T23:07:04.954Z,5.20
2019-03-04T23:12:15.986Z,5.20
2019-03-04T23:17:10.636Z,5.20
2019-03-04T23:22:05.289Z,5.30
2019-03-04T23:27:00.028Z,5.30
2019-03-04T23:31:54.692Z,5.30
2019-03-04T23:36:49.278Z,5.20
2019-03-04T23:41:43.869Z,5.10
2019-03-04T23:46:38.515Z,4.90
2019-03-04T23:51:33.106Z,4.80
2019-03-04T23:56:27.704Z,4.70
